createdAt,value
2023-04-05T00:02:54.645Z,97184.34
2023-04-05T00:05:54.670Z,97178.28
2023-04-05T00:08:51.563Z,97170.03
2023-04-05T00:11:48.705Z,97167.19
2023-04-05T00:14:46.125Z,97154.09
2023-04-05T00:17:43.945Z,97164.56
2023-04-05T00:20:41.062Z,97159.34
2023-04-05T00:23:39.871Z,97152.69
2023-04-05T00:26:36.768Z,97164.59
2023-04-05T00:29:34.185Z,97148.88
2023-04-05T00:32:31.135Z,97153.50
2023-04-05T00:35:28.836Z,97148.66
2023-04-05T00:38:25.714Z,97161.97
2023-04-05T00:41:22.550Z,97153.47
2023-04-05T00:44:19.401Z,97158.91
2023-04-05T00:47:16.238Z,97152.88
2023-04-05T00:50:13.486Z,97155.50
2023-04-05T00:53:10.652Z,97149.88
2023-04-05T00:56:08.889Z,97149.22
2023-04-05T00:59:05.832Z,97151.28
2023-04-05T01:02:31.809Z,97149.47
2023-04-05T01:06:18.705Z,97137.34
2023-04-05T01:09:47.871Z,97142.56
2023-04-05T01:12:45.506Z,97128.91
2023-04-05T01:15:42.463Z,97133.53
2023-04-05T01:18:40.746Z,97137.16
2023-04-05T01:21:40.116Z,97127.50
2023-04-05T01:24:57.909Z,97129.09
2023-04-05T01:28:31.405Z,97134.75
2023-04-05T01:32:00.698Z,97133.94
2023-04-05T01:35:17.878Z,97131.34
2023-04-05T01:38:22.253Z,97128.69
2023-04-05T01:41:19.111Z,97120.41
2023-04-05T01:44:16.306Z,97125.84
2023-04-05T01:47:13.267Z,97123.84
2023-04-05T01:50:10.620Z,97120.00
2023-04-05T01:53:08.389Z,97121.81
2023-04-05T01:56:05.705Z,97122.25
2023-04-05T01:59:02.697Z,97116.78
2023-04-05T02:01:59.594Z,97120.38
2023-04-05T02:04:56.422Z,97118.81
2023-04-05T02:07:53.312Z,97123.41
2023-04-05T02:10:52.501Z,97117.38
2023-04-05T02:13:49.342Z,97115.97
2023-04-05T02:16:46.744Z,97121.78
2023-04-05T02:19:46.268Z,97121.19
2023-04-05T02:22:45.247Z,97115.78
2023-04-05T02:25:42.337Z,97117.75
2023-04-05T02:28:39.191Z,97111.31
2023-04-05T02:31:36.094Z,97117.56
2023-04-05T02:34:33.721Z,97120.56
2023-04-05T02:37:30.897Z,97118.13
2023-04-05T02:40:27.795Z,97111.72
2023-04-05T02:43:24.648Z,97100.47
2023-04-05T02:46:21.607Z,97104.28
2023-04-05T02:49:18.581Z,97103.84
2023-04-05T02:52:16.262Z,97102.63
2023-04-05T02:55:13.105Z,97106.63
2023-04-05T02:58:09.956Z,97100.63
2023-04-05T03:01:07.352Z,97093.00
2023-04-05T03:04:04.323Z,97093.41
2023-04-05T03:07:04.917Z,97104.06
2023-04-05T03:10:02.597Z,97101.41
2023-04-05T03:12:59.435Z,97100.63
2023-04-05T03:15:56.300Z,97098.22
2023-04-05T03:18:53.257Z,97096.59
2023-04-05T03:21:50.385Z,97103.44
2023-04-05T03:24:47.806Z,97097.13
2023-04-05T03:27:45.937Z,97094.72
2023-04-05T03:30:42.772Z,97098.75
2023-04-05T03:33:39.654Z,97101.38
2023-04-05T03:36:42.651Z,97097.34
2023-04-05T03:39:39.542Z,97097.34
2023-04-05T03:42:36.381Z,97109.00
2023-04-05T03:45:33.835Z,97101.56
2023-04-05T03:48:30.778Z,97102.78
2023-04-05T03:51:28.064Z,97105.38
2023-04-05T03:54:24.946Z,97101.13
2023-04-05T03:57:22.289Z,97107.97
2023-04-05T04:00:19.990Z,97117.63
2023-04-05T04:03:16.804Z,97117.44
2023-04-05T04:06:14.355Z,97105.81
2023-04-05T04:09:12.199Z,97112.28
2023-04-05T04:12:09.052Z,97115.44
2023-04-05T04:15:06.981Z,97117.78
2023-04-05T04:18:04.238Z,97105.31
2023-04-05T04:21:06.880Z,97113.03
2023-04-05T04:24:04.038Z,97114.06
2023-04-05T04:27:00.865Z,97120.88
2023-04-05T04:30:04.520Z,97115.41
2023-04-05T04:33:06.656Z,97106.72
2023-04-05T04:36:09.403Z,97102.94
2023-04-05T04:39:06.380Z,97108.72
2023-04-05T04:42:04.126Z,97104.72
2023-04-05T04:45:02.694Z,97109.09
2023-04-05T04:47:59.932Z,97113.91
2023-04-05T04:50:57.405Z,97103.72
2023-04-05T04:53:54.193Z,97105.50
2023-04-05T04:56:51.055Z,97110.31
2023-04-05T04:59:47.886Z,97110.94
2023-04-05T05:02:44.845Z,97112.91
2023-04-05T05:05:51.648Z,97115.81
2023-04-05T05:08:49.098Z,97107.59
2023-04-05T05:11:46.060Z,97115.00
2023-04-05T05:14:42.992Z,97109.00
2023-04-05T05:17:39.976Z,97115.06
2023-04-05T05:20:37.402Z,97105.84
2023-04-05T05:23:34.273Z,97116.06
2023-04-05T05:26:31.114Z,97110.69
2023-04-05T05:29:28.041Z,97108.59
2023-04-05T05:32:24.897Z,97114.69
2023-04-05T05:35:21.732Z,97109.66
2023-04-05T05:38:18.901Z,97100.00
2023-04-05T05:41:15.853Z,97099.88
2023-04-05T05:44:13.430Z,97101.72
2023-04-05T05:47:10.350Z,97097.66
2023-04-05T05:50:09.110Z,97100.66
2023-04-05T05:53:06.199Z,97095.41
2023-04-05T05:56:03.363Z,97096.84
2023-04-05T05:59:01.714Z,97093.03
2023-04-05T06:01:58.645Z,97081.97
2023-04-05T06:04:55.665Z,97086.59
2023-04-05T06:07:52.891Z,97088.63
2023-04-05T06:10:51.026Z,97088.81
2023-04-05T06:13:47.873Z,97086.41
2023-04-05T06:16:44.954Z,97097.88
2023-04-05T06:19:41.843Z,97088.00
2023-04-05T06:22:41.234Z,97077.13
2023-04-05T06:25:38.259Z,97078.94
2023-04-05T06:28:35.440Z,97075.84
2023-04-05T06:31:34.828Z,97084.50
2023-04-05T06:34:31.924Z,97083.66
2023-04-05T06:37:28.801Z,97073.38
2023-04-05T06:40:25.953Z,97073.88
2023-04-05T06:43:22.817Z,97074.66
2023-04-05T06:46:19.742Z,97070.22
2023-04-05T06:49:16.700Z,97062.16
2023-04-05T06:52:13.519Z,97073.78
2023-04-05T06:55:10.504Z,97079.75
2023-04-05T06:58:07.328Z,97072.00
2023-04-05T07:01:04.995Z,97072.53
2023-04-05T07:04:02.103Z,97069.81
2023-04-05T07:07:02.403Z,97066.28
2023-04-05T07:09:59.622Z,97072.06
2023-04-05T07:12:56.551Z,97074.09
2023-04-05T07:16:00.423Z,97060.22
2023-04-05T07:18:57.905Z,97062.56
2023-04-05T07:21:57.150Z,97051.28
2023-04-05T07:24:55.533Z,97058.56
2023-04-05T07:27:52.768Z,97053.41
2023-04-05T07:30:49.933Z,97047.09
2023-04-05T07:33:46.767Z,97051.63
2023-04-05T07:36:43.571Z,97043.97
2023-04-05T07:39:40.508Z,97048.22
2023-04-05T07:42:37.661Z,97049.13
2023-04-05T07:45:34.504Z,97049.00
2023-04-05T07:48:31.477Z,97048.28
2023-04-05T07:51:28.395Z,97036.03
2023-04-05T07:54:25.368Z,97036.91
2023-04-05T07:57:22.532Z,97042.31
2023-04-05T08:00:20.428Z,97044.81
2023-04-05T08:03:17.502Z,97034.72
2023-04-05T08:06:19.230Z,97041.34
2023-04-05T08:09:16.089Z,97034.66
2023-04-05T08:12:12.914Z,97034.88
2023-04-05T08:15:10.502Z,97042.00
2023-04-05T08:18:07.371Z,97039.34
2023-04-05T08:21:04.335Z,97033.47
2023-04-05T08:24:01.238Z,97040.53
2023-04-05T08:26:58.098Z,97039.03
2023-04-05T08:29:54.892Z,97033.97
2023-04-05T08:32:51.776Z,97029.00
2023-04-05T08:35:48.677Z,97029.03
2023-04-05T08:38:45.630Z,97034.53
2023-04-05T08:42:02.191Z,97020.34
2023-04-05T08:45:03.315Z,97017.25
2023-04-05T08:48:00.259Z,97021.41
2023-04-05T08:50:57.108Z,97019.66
2023-04-05T08:53:54.665Z,97028.63
2023-04-05T08:56:54.542Z,97024.94
2023-04-05T08:59:52.902Z,97021.56
2023-04-05T09:02:54.750Z,97024.28
2023-04-05T09:05:53.624Z,97018.78
2023-04-05T09:08:50.570Z,97014.34
2023-04-05T09:11:48.444Z,97015.78
2023-04-05T09:14:46.378Z,97015.72
2023-04-05T09:17:44.032Z,97009.38
2023-04-05T09:20:41.099Z,97017.31
2023-04-05T09:23:50.755Z,97018.88
2023-04-05T09:26:47.639Z,97026.13
2023-04-05T09:29:47.590Z,97008.00
2023-04-05T09:32:47.910Z,97011.94
2023-04-05T09:35:45.054Z,97014.84
2023-04-05T09:38:44.746Z,97014.25
2023-04-05T09:41:41.907Z,97014.13
2023-04-05T09:44:55.049Z,97012.81
2023-04-05T09:47:58.111Z,97017.34
2023-04-05T09:51:12.682Z,97015.06
2023-04-05T09:54:11.368Z,97008.38
2023-04-05T09:57:10.361Z,97015.63
2023-04-05T10:00:20.698Z,97010.84
2023-04-05T10:03:17.800Z,97009.53
2023-04-05T10:06:16.723Z,96995.03
2023-04-05T10:09:15.224Z,96987.84
2023-04-05T10:12:28.447Z,96993.38
2023-04-05T10:15:26.919Z,96987.19
2023-04-05T10:18:29.794Z,96964.84
2023-04-05T10:21:33.688Z,96958.88
2023-04-05T10:24:59.986Z,96956.28
2023-04-05T10:28:06.403Z,96962.50
2023-04-05T10:31:37.079Z,96967.06
2023-04-05T10:34:51.255Z,96960.50
2023-04-05T10:38:20.039Z,96961.63
2023-04-05T10:41:17.442Z,96951.13
2023-04-05T10:44:25.745Z,96942.84
2023-04-05T10:47:28.227Z,96942.97
2023-04-05T10:50:25.856Z,96934.84
2023-04-05T10:53:23.415Z,96938.09
2023-04-05T10:56:21.518Z,96939.22
2023-04-05T10:59:19.021Z,96929.22
2023-04-05T11:02:16.907Z,96933.16
2023-04-05T11:05:37.769Z,96924.72
2023-04-05T11:08:35.549Z,96925.94
2023-04-05T11:11:46.344Z,96941.13
2023-04-05T11:14:44.535Z,96925.31
2023-04-05T11:17:41.467Z,96916.31
2023-04-05T11:20:51.598Z,96926.28
2023-04-05T11:24:11.829Z,96907.19
2023-04-05T11:27:10.213Z,96917.19
2023-04-05T11:30:07.766Z,96908.69
2023-04-05T11:33:08.601Z,96905.00
2023-04-05T11:36:05.632Z,96910.41
2023-04-05T11:39:23.420Z,96900.53
2023-04-05T11:42:21.814Z,96889.66
2023-04-05T11:45:19.664Z,96889.34
2023-04-05T11:48:17.782Z,96900.09
2023-04-05T11:51:16.080Z,96893.22
2023-04-05T11:54:12.919Z,96877.66
2023-04-05T11:57:14.027Z,96873.75
2023-04-05T12:00:18.652Z,96867.75
2023-04-05T12:03:17.254Z,96868.47
2023-04-05T12:06:14.115Z,96867.63
2023-04-05T12:09:11.048Z,96865.56
2023-04-05T12:12:17.256Z,96854.25
2023-04-05T12:15:17.675Z,96852.72
2023-04-05T12:18:15.522Z,96853.97
2023-04-05T12:21:12.512Z,96857.81
2023-04-05T12:24:09.627Z,96841.81
2023-04-05T12:27:06.817Z,96843.03
2023-04-05T12:30:08.510Z,96847.50
2023-04-05T12:33:11.936Z,96839.22
2023-04-05T12:36:09.279Z,96846.53
2023-04-05T12:39:08.729Z,96843.44
2023-04-05T12:42:05.856Z,96839.91
2023-04-05T12:45:05.281Z,96829.81
2023-04-05T12:48:02.302Z,96828.44
2023-04-05T12:51:05.016Z,96825.16
2023-04-05T12:54:04.219Z,96838.31
2023-04-05T12:57:04.484Z,96837.69
2023-04-05T13:00:01.477Z,96833.09
2023-04-05T13:02:59.736Z,96830.41
2023-04-05T13:05:57.014Z,96820.00
2023-04-05T13:08:53.925Z,96811.34
2023-04-05T13:11:51.532Z,96811.84
2023-04-05T13:14:48.476Z,96806.69
2023-04-05T13:17:49.912Z,96802.63
2023-04-05T13:20:47.121Z,96793.69
2023-04-05T13:23:43.954Z,96790.44
2023-04-05T13:26:40.840Z,96796.88
2023-04-05T13:29:37.651Z,96796.50
2023-04-05T13:32:34.755Z,96795.69
2023-04-05T13:35:31.968Z,96773.91
2023-04-05T13:38:28.842Z,96767.69
2023-04-05T13:41:26.032Z,96769.69
2023-04-05T13:44:23.398Z,96754.53
2023-04-05T13:47:20.358Z,96764.97
2023-04-05T13:50:17.218Z,96773.66
2023-04-05T13:53:14.193Z,96768.19
2023-04-05T13:56:11.078Z,96752.84
2023-04-05T13:59:08.063Z,96749.44
2023-04-05T14:02:05.043Z,96743.63
2023-04-05T14:05:02.102Z,96745.31
2023-04-05T14:07:58.930Z,96747.47
2023-04-05T14:10:55.955Z,96743.25
2023-04-05T14:13:52.844Z,96745.53
2023-04-05T14:16:49.673Z,96739.19
2023-04-05T14:19:46.633Z,96743.16
2023-04-05T14:22:43.494Z,96740.75
2023-04-05T14:25:40.609Z,96738.72
2023-04-05T14:28:37.745Z,96739.34
2023-04-05T14:31:34.781Z,96735.53
2023-04-05T14:34:31.692Z,96737.47
2023-04-05T14:37:28.701Z,96743.41
2023-04-05T14:40:25.685Z,96731.09
2023-04-05T14:43:25.801Z,96731.44
2023-04-05T14:46:23.552Z,96732.31
2023-04-05T14:49:20.561Z,96728.13
2023-04-05T14:52:17.533Z,96735.56
2023-04-05T14:55:14.870Z,96729.47
2023-04-05T14:58:13.775Z,96730.44
2023-04-05T15:01:11.403Z,96730.50
2023-04-05T15:04:09.456Z,96724.13
2023-04-05T15:07:06.406Z,96723.81
2023-04-05T15:10:04.195Z,96716.78
2023-04-05T15:13:01.245Z,96717.03
2023-04-05T15:15:58.061Z,96719.78
2023-04-05T15:18:55.583Z,96703.91
2023-04-05T15:21:52.455Z,96727.06
2023-04-05T15:24:49.481Z,96723.69
2023-04-05T15:27:46.379Z,96709.81
2023-04-05T15:30:44.861Z,96705.66
2023-04-05T15:33:41.693Z,96715.88
2023-04-05T15:36:38.554Z,96717.88
2023-04-05T15:39:35.380Z,96722.50
2023-04-05T15:42:34.470Z,96708.53
2023-04-05T15:45:31.775Z,96714.38
2023-04-05T15:48:28.604Z,96712.97
2023-04-05T15:51:25.630Z,96711.44
2023-04-05T15:54:22.459Z,96709.34
2023-04-05T15:57:19.751Z,96704.78
2023-04-05T16:00:17.026Z,96724.75
2023-04-05T16:03:14.609Z,96722.34
2023-04-05T16:06:11.587Z,96713.53
2023-04-05T16:09:08.457Z,96715.72
2023-04-05T16:12:05.528Z,96723.16
2023-04-05T16:15:02.493Z,96720.75
2023-04-05T16:17:59.440Z,96717.78
2023-04-05T16:20:57.382Z,96708.50
2023-04-05T16:23:56.772Z,96711.81
2023-04-05T16:26:53.718Z,96713.16
2023-04-05T16:29:50.593Z,96707.13
2023-04-05T16:32:49.628Z,96710.06
2023-04-05T16:35:46.503Z,96717.84
2023-04-05T16:38:45.027Z,96707.56
2023-04-05T16:41:43.021Z,96707.72
2023-04-05T16:44:39.941Z,96710.53
2023-04-05T16:47:37.587Z,96719.91
2023-04-05T16:50:34.614Z,96715.41
2023-04-05T16:53:31.512Z,96713.88
2023-04-05T16:56:28.840Z,96711.72
2023-04-05T16:59:25.863Z,96712.25
2023-04-05T17:02:22.876Z,96711.41
2023-04-05T17:05:19.702Z,96712.13
2023-04-05T17:08:16.521Z,96717.38
2023-04-05T17:11:13.405Z,96713.91
2023-04-05T17:14:10.306Z,96715.06
2023-04-05T17:17:07.111Z,96727.22
2023-04-05T17:20:04.544Z,96711.22
2023-04-05T17:23:01.446Z,96716.16
2023-04-05T17:25:58.254Z,96726.22
2023-04-05T17:28:55.073Z,96721.34
2023-04-05T17:31:51.872Z,96720.63
2023-04-05T17:34:48.676Z,96724.84
2023-04-05T17:37:46.680Z,96727.59
2023-04-05T17:40:43.544Z,96725.28
2023-04-05T17:43:40.533Z,96734.69
2023-04-05T17:46:42.627Z,96736.38
2023-04-05T17:49:41.539Z,96734.66
2023-04-05T17:52:38.376Z,96745.31
2023-04-05T17:55:35.253Z,96742.75
2023-04-05T17:58:32.552Z,96740.88
2023-04-05T18:01:29.521Z,96749.38
2023-04-05T18:04:26.880Z,96749.66
2023-04-05T18:07:23.752Z,96750.72
2023-04-05T18:10:21.226Z,96748.06
2023-04-05T18:13:19.445Z,96757.91
2023-04-05T18:16:16.586Z,96760.53
2023-04-05T18:19:13.513Z,96770.50
2023-04-05T18:22:10.592Z,96768.41
2023-04-05T18:25:09.150Z,96767.72
2023-04-05T18:28:19.295Z,96777.56
2023-04-05T18:31:18.945Z,96776.72
2023-04-05T18:34:16.336Z,96777.28
2023-04-05T18:37:13.173Z,96788.06
2023-04-05T18:40:10.543Z,96783.88
2023-04-05T18:43:07.573Z,96785.16
2023-04-05T18:46:04.602Z,96798.78
2023-04-05T18:49:01.462Z,96796.34
2023-04-05T18:51:58.353Z,96797.13
2023-04-05T18:54:58.440Z,96800.09
2023-04-05T18:57:55.327Z,96800.22
2023-04-05T19:00:52.798Z,96804.44
2023-04-05T19:03:50.488Z,96812.66
2023-04-05T19:06:47.361Z,96814.66
2023-04-05T19:09:44.291Z,96817.28
2023-04-05T19:12:41.324Z,96814.28
2023-04-05T19:15:38.524Z,96816.22
2023-04-05T19:18:35.605Z,96811.81
2023-04-05T19:21:32.592Z,96820.69
2023-04-05T19:24:29.420Z,96822.63
2023-04-05T19:27:30.813Z,96828.53
2023-04-05T19:30:27.636Z,96825.13
2023-04-05T19:33:24.456Z,96823.38
2023-04-05T19:36:21.293Z,96821.06
2023-04-05T19:39:18.143Z,96824.22
2023-04-05T19:42:14.958Z,96823.69
2023-04-05T19:45:13.702Z,96823.13
2023-04-05T19:48:36.894Z,96827.41
2023-04-05T19:51:33.768Z,96823.03
2023-04-05T19:54:30.605Z,96825.16
2023-04-05T19:57:28.676Z,96832.34
2023-04-05T20:00:42.760Z,96837.50
2023-04-05T20:03:41.309Z,96828.25
2023-04-05T20:06:38.983Z,96831.59
2023-04-05T20:09:38.625Z,96828.34
2023-04-05T20:12:35.521Z,96829.31
2023-04-05T20:15:37.387Z,96834.03
2023-04-05T20:18:34.305Z,96833.00
2023-04-05T20:21:31.238Z,96829.50
2023-04-05T20:24:28.694Z,96835.91
2023-04-05T20:27:25.529Z,96838.13
2023-04-05T20:30:22.339Z,96837.22
2023-04-05T20:33:47.181Z,96834.09
2023-04-05T20:36:49.493Z,96832.78
2023-04-05T20:39:46.314Z,96824.69
2023-04-05T20:42:43.189Z,96824.41
2023-04-05T20:45:40.106Z,96823.41
2023-04-05T20:48:37.462Z,96825.03
2023-04-05T20:51:34.392Z,96820.44
2023-04-05T20:54:31.586Z,96827.69
2023-04-05T20:57:29.410Z,96827.22
2023-04-05T21:00:26.212Z,96826.56
2023-04-05T21:03:23.454Z,96833.66
2023-04-05T21:06:20.508Z,96840.00
2023-04-05T21:09:17.399Z,96833.59
2023-04-05T21:12:14.210Z,96831.47
2023-04-05T21:15:11.116Z,96822.81
2023-04-05T21:18:08.441Z,96840.00
2023-04-05T21:21:05.730Z,96821.56
2023-04-05T21:24:02.591Z,96823.75
2023-04-05T21:26:59.402Z,96829.72
2023-04-05T21:29:56.278Z,96819.88
2023-04-05T21:32:54.052Z,96818.38
2023-04-05T21:35:51.194Z,96821.13
2023-04-05T21:38:48.086Z,96829.22
2023-04-05T21:41:44.938Z,96825.97
2023-04-05T21:44:41.755Z,96819.78
2023-04-05T21:47:38.728Z,96829.50
2023-04-05T21:50:35.743Z,96825.69
2023-04-05T21:53:32.626Z,96827.56
2023-04-05T21:56:29.444Z,96824.91
2023-04-05T21:59:26.300Z,96815.31
2023-04-05T22:02:23.215Z,96810.03
2023-04-05T22:05:34.042Z,96823.88
2023-04-05T22:08:34.360Z,96828.19
2023-04-05T22:11:31.366Z,96825.22
2023-04-05T22:14:28.528Z,96824.53
2023-04-05T22:17:25.575Z,96824.19
2023-04-05T22:20:22.453Z,96822.22
2023-04-05T22:23:19.262Z,96828.97
2023-04-05T22:26:16.084Z,96836.47
2023-04-05T22:29:13.000Z,96834.66
2023-04-05T22:32:10.044Z,96836.41
2023-04-05T22:35:07.437Z,96834.69
2023-04-05T22:38:04.456Z,96841.13
2023-04-05T22:41:01.381Z,96840.47
2023-04-05T22:43:58.240Z,96833.97
2023-04-05T22:46:55.035Z,96837.59
2023-04-05T22:49:52.340Z,96836.94
2023-04-05T22:52:49.220Z,96842.94
2023-04-05T22:55:46.068Z,96850.84
2023-04-05T22:58:42.892Z,96835.06
2023-04-05T23:01:39.847Z,96836.41
2023-04-05T23:04:36.777Z,96840.44
2023-04-05T23:07:33.670Z,96829.88
2023-04-05T23:10:30.570Z,96840.56
2023-04-05T23:13:27.509Z,96835.94
2023-04-05T23:16:24.480Z,96833.81
2023-04-05T23:19:21.482Z,96827.69
2023-04-05T23:22:18.270Z,96828.09
2023-04-05T23:25:15.093Z,96827.72
2023-04-05T23:28:11.906Z,96832.06
2023-04-05T23:31:08.841Z,96826.88
2023-04-05T23:34:05.789Z,96826.22
2023-04-05T23:37:02.585Z,96828.41
2023-04-05T23:39:59.400Z,96835.72
2023-04-05T23:42:56.410Z,96822.59
2023-04-05T23:45:53.250Z,96829.50
2023-04-05T23:48:51.072Z,96822.72
2023-04-05T23:51:47.909Z,96815.75
2023-04-05T23:54:44.731Z,96827.19
2023-04-05T23:57:41.684Z,96818.00
